Time;durP1;ratioP1;P1;durP2;ratioP2;P2;SDS_P1;SDS_P2;PMS_P1;PMS_P2;Temp;Humidity;BMP_temperature;BMP_pressure;BME280_temperature;BME280_humidity;BME280_pressure;Samples;Min_cycle;Max_cycle;Signal;HPM_P1;HPM_P2
2022/12/13 00:01:30;;;;;;;11.13;9.87;;;-3.70;99.90;;;;;;5015507;28;20214;-67
2022/12/13 00:03:58;;;;;;;14.03;12.70;;;-3.70;99.90;;;;;;5014159;28;20242;-67
2022/12/13 00:06:24;;;;;;;10.93;9.80;;;-3.80;99.90;;;;;;5014499;28;20194;-67
2022/12/13 00:08:50;;;;;;;13.57;11.80;;;-3.90;99.90;;;;;;5014635;28;20177;-65
2022/12/13 00:11:16;;;;;;;12.63;10.93;;;-4.00;99.90;;;;;;5013819;28;20190;-65
2022/12/13 00:13:42;;;;;;;11.73;10.73;;;-3.90;99.90;;;;;;5014317;28;20204;-65
2022/12/13 00:16:13;;;;;;;11.97;11.10;;;-4.00;99.90;;;;;;5013972;28;20180;-65
2022/12/13 00:18:39;;;;;;;14.97;11.50;;;-4.00;99.90;;;;;;5014638;28;20193;-65
2022/12/13 00:21:11;;;;;;;12.50;10.90;;;-4.10;99.90;;;;;;5013896;28;20215;-67
2022/12/13 00:23:37;;;;;;;13.50;10.97;;;-4.20;99.90;;;;;;5014285;28;20227;-65
2022/12/13 00:26:10;;;;;;;10.13;9.23;;;-4.20;99.90;;;;;;5013513;28;20247;-65
2022/12/13 00:28:36;;;;;;;14.30;11.50;;;-4.30;99.90;;;;;;5014239;28;20172;-65
2022/12/13 00:31:02;;;;;;;13.80;11.80;;;-4.30;99.90;;;;;;5013587;28;20275;-65
2022/12/13 00:33:28;;;;;;;10.67;9.80;;;-4.20;99.90;;;;;;5014411;28;20200;-65
2022/12/13 00:35:54;;;;;;;11.37;10.57;;;-4.20;99.90;;;;;;5014147;28;20195;-65
2022/12/13 00:38:20;;;;;;;11.60;10.77;;;-4.20;99.90;;;;;;5014142;28;20176;-65
2022/12/13 00:40:46;;;;;;;12.80;11.63;;;-4.20;99.90;;;;;;5013360;28;20258;-65
2022/12/13 00:43:11;;;;;;;12.00;10.80;;;-4.30;99.90;;;;;;5013964;28;20331;-65
2022/12/13 00:45:37;;;;;;;11.83;10.93;;;-4.40;99.90;;;;;;5013793;28;20263;-65
2022/12/13 00:48:04;;;;;;;13.23;12.20;;;-4.50;99.90;;;;;;5013751;28;20207;-65
2022/12/13 00:50:30;;;;;;;11.20;10.43;;;-4.40;99.90;;;;;;5013725;28;20180;-65
2022/12/13 00:52:58;;;;;;;11.83;11.03;;;-4.40;99.90;;;;;;5013524;28;20319;-65
2022/12/13 00:55:23;;;;;;;12.10;11.23;;;-4.30;99.90;;;;;;5013242;28;20180;-65
2022/12/13 00:57:49;;;;;;;11.73;10.73;;;-4.40;99.90;;;;;;5013608;28;20183;-66
2022/12/13 01:00:15;;;;;;;12.60;11.43;;;-4.40;99.90;;;;;;5012829;28;20181;-65
2022/12/13 01:02:42;;;;;;;12.37;10.23;;;-4.30;99.90;;;;;;5013539;28;20299;-66
2022/12/13 01:05:08;;;;;;;14.07;12.17;;;-4.30;99.90;;;;;;5011699;28;20327;-66
2022/12/13 01:07:35;;;;;;;11.83;10.63;;;-4.20;99.90;;;;;;5013446;28;20197;-66
2022/12/13 01:10:02;;;;;;;11.23;10.10;;;-4.10;99.90;;;;;;5012609;28;20176;-66
2022/12/13 01:12:27;;;;;;;12.83;11.73;;;-4.00;99.90;;;;;;5013128;28;20210;-66
2022/12/13 01:14:53;;;;;;;14.63;11.47;;;-4.00;99.90;;;;;;5013132;28;20262;-66
2022/12/13 01:17:18;;;;;;;12.00;10.97;;;-3.90;99.90;;;;;;5012888;28;20187;-66
2022/12/13 01:19:44;;;;;;;11.03;10.10;;;-3.80;99.90;;;;;;5013519;28;20641;-65
2022/12/13 01:22:10;;;;;;;11.20;10.10;;;-3.90;99.90;;;;;;5013434;28;20272;-65
2022/12/13 01:24:37;;;;;;;13.40;12.03;;;-3.90;99.90;;;;;;5014516;28;20234;-66
2022/12/13 01:27:03;;;;;;;12.27;9.93;;;-4.00;99.90;;;;;;5013836;28;20554;-66
2022/12/13 01:29:28;;;;;;;13.37;10.90;;;-4.00;99.90;;;;;;5012644;28;20176;-66
2022/12/13 01:31:54;;;;;;;12.43;10.33;;;-4.00;99.90;;;;;;5012653;28;20315;-66
2022/12/13 01:34:21;;;;;;;11.40;10.33;;;-4.00;99.90;;;;;;5012811;28;20334;-66
2022/12/13 01:36:47;;;;;;;12.10;10.77;;;-4.00;99.90;;;;;;5012047;28;20231;-65
2022/12/13 01:39:16;;;;;;;12.80;11.70;;;-4.10;99.90;;;;;;5011887;28;20176;-66
2022/12/13 01:41:47;;;;;;;13.57;9.73;;;-4.20;99.90;;;;;;5012479;28;20215;-66
2022/12/13 01:44:51;;;;;;;13.93;11.30;;;-4.20;99.90;;;;;;5012718;28;20568;-65
2022/12/13 01:47:21;;;;;;;19.67;13.33;;;-4.20;99.90;;;;;;5012287;28;20186;-65
2022/12/13 01:49:47;;;;;;;12.60;11.37;;;-4.10;99.90;;;;;;5011144;28;20176;-66
2022/12/13 01:52:15;;;;;;;13.67;12.37;;;-4.10;99.90;;;;;;5011215;28;20198;-65
2022/12/13 01:54:45;;;;;;;10.60;9.90;;;-4.20;99.90;;;;;;5012454;28;20673;-65
2022/12/13 01:57:14;;;;;;;19.33;12.17;;;-4.20;99.90;;;;;;5012182;28;20184;-65
2022/12/13 01:59:41;;;;;;;12.67;11.47;;;-4.20;99.90;;;;;;5012100;28;20180;-66
2022/12/13 02:02:10;;;;;;;12.93;11.70;;;-4.30;99.90;;;;;;5011963;28;20204;-65
2022/12/13 02:04:50;;;;;;;14.00;12.70;;;-4.30;99.90;;;;;;5012387;28;20276;-65
2022/12/13 02:07:18;;;;;;;19.03;12.10;;;-4.40;99.90;;;;;;5012034;28;20184;-65
2022/12/13 02:09:45;;;;;;;11.90;10.97;;;-4.40;99.90;;;;;;5011952;28;20684;-65
2022/12/13 02:12:11;;;;;;;16.43;13.63;;;-4.40;99.90;;;;;;5011772;28;20577;-65
2022/12/13 02:14:39;;;;;;;13.13;11.70;;;-4.40;99.90;;;;;;5026127;28;20309;-66
2022/12/13 02:17:26;;;;;;;12.77;11.67;;;-4.50;99.90;;;;;;5031728;28;20214;-66
2022/12/13 02:20:06;;;;;;;13.60;12.67;;;-4.50;99.90;;;;;;5014111;28;20212;-65
2022/12/13 02:23:01;;;;;;;13.20;12.10;;;-4.50;99.90;;;;;;5012757;28;20272;-65
2022/12/13 02:25:59;;;;;;;14.43;13.43;;;-4.70;99.90;;;;;;5012589;28;20179;-65
2022/12/13 02:28:43;;;;;;;11.57;10.70;;;-4.60;99.90;;;;;;5011724;28;20216;-65
2022/12/13 02:31:16;;;;;;;13.40;12.17;;;-4.60;99.90;;;;;;5011464;28;20515;-65
2022/12/13 02:33:48;;;;;;;13.63;12.50;;;-4.60;99.90;;;;;;5011865;28;20204;-65
2022/12/13 02:36:26;;;;;;;13.97;12.53;;;-4.60;99.90;;;;;;5010850;28;20373;-65
2022/12/13 02:39:04;;;;;;;13.53;11.67;;;-4.60;99.90;;;;;;5010647;28;20178;-66
2022/12/13 02:41:43;;;;;;;13.50;12.33;;;-4.70;99.90;;;;;;4991945;28;20220;-65
2022/12/13 02:44:16;;;;;;;13.73;12.83;;;-4.80;99.90;;;;;;4993373;28;20678;-65
2022/12/13 02:46:49;;;;;;;21.13;14.10;;;-4.90;99.90;;;;;;5012065;28;20255;-65
2022/12/13 02:49:16;;;;;;;11.97;11.10;;;-4.90;99.90;;;;;;5011996;28;20172;-66
2022/12/13 02:51:43;;;;;;;14.93;13.83;;;-5.00;99.90;;;;;;5012652;28;20597;-65
2022/12/13 02:54:09;;;;;;;13.70;12.30;;;-5.00;99.90;;;;;;5011502;28;20220;-65
2022/12/13 02:56:34;;;;;;;15.40;14.30;;;-4.90;99.90;;;;;;5011319;28;20204;-65
2022/12/13 02:59:07;;;;;;;14.47;13.23;;;-4.80;99.90;;;;;;5011426;28;20175;-66
2022/12/13 03:02:05;;;;;;;14.73;13.37;;;-4.80;99.90;;;;;;5011288;28;20211;-66
2022/12/13 03:07:45;;;;;;;13.43;12.73;;;-4.70;99.90;;;;;;5011522;28;20183;-65
2022/12/13 03:10:25;;;;;;;19.57;15.23;;;-4.60;99.90;;;;;;5009595;28;20226;-65
2022/12/13 03:15:58;;;;;;;12.97;12.07;;;-4.60;99.90;;;;;;5011444;28;20179;-65
2022/12/13 03:18:27;;;;;;;14.17;12.97;;;-4.60;99.90;;;;;;5011425;28;20200;-66
2022/12/13 03:20:56;;;;;;;14.90;13.43;;;-4.60;99.90;;;;;;5010830;28;20198;-65
2022/12/13 03:23:23;;;;;;;12.17;11.53;;;-4.60;99.90;;;;;;5011248;28;20207;-65
2022/12/13 03:25:51;;;;;;;14.77;13.43;;;-4.60;99.90;;;;;;5010983;28;20238;-66
2022/12/13 03:28:17;;;;;;;13.07;12.00;;;-4.60;99.90;;;;;;5011282;28;20639;-65
2022/12/13 03:30:43;;;;;;;13.50;12.27;;;-4.60;99.90;;;;;;5010901;28;20176;-65
2022/12/13 03:33:09;;;;;;;15.57;14.07;;;-4.70;99.90;;;;;;5011247;28;20303;-66
2022/12/13 03:35:35;;;;;;;14.83;12.70;;;-4.70;99.90;;;;;;5010222;28;20180;-65
2022/12/13 03:38:01;;;;;;;11.47;10.70;;;-4.60;99.90;;;;;;5011212;28;20259;-66
2022/12/13 03:40:29;;;;;;;14.40;13.33;;;-4.60;99.90;;;;;;5010509;28;20176;-65
2022/12/13 03:42:55;;;;;;;11.13;10.53;;;-4.70;99.90;;;;;;5010987;28;20192;-65
2022/12/13 03:45:21;;;;;;;15.00;14.03;;;-4.70;99.90;;;;;;5010652;28;20183;-66
2022/12/13 03:47:46;;;;;;;16.93;15.37;;;-4.80;99.90;;;;;;5011179;28;20533;-65
2022/12/13 03:50:12;;;;;;;16.80;15.50;;;-4.80;99.90;;;;;;5010348;28;20251;-65
2022/12/13 03:52:38;;;;;;;12.03;11.33;;;-4.70;99.90;;;;;;5010983;28;20622;-66
2022/12/13 03:55:04;;;;;;;12.30;11.47;;;-4.90;99.90;;;;;;5010751;28;20172;-66
2022/12/13 03:57:29;;;;;;;16.93;13.53;;;-4.90;99.90;;;;;;5010677;28;20176;-66
2022/12/13 03:59:55;;;;;;;27.20;13.93;;;-4.90;99.90;;;;;;5010591;28;20532;-65
2022/12/13 04:02:21;;;;;;;12.20;11.57;;;-4.90;99.90;;;;;;5012457;28;20237;-65
2022/12/13 04:04:46;;;;;;;11.47;10.80;;;-5.00;99.90;;;;;;5014545;28;20657;-64
2022/12/13 04:07:12;;;;;;;31.33;11.60;;;-5.00;99.90;;;;;;5014170;28;20172;-65
2022/12/13 04:09:37;;;;;;;12.50;11.80;;;-5.00;99.90;;;;;;5014501;28;20638;-65
2022/12/13 04:14:47;;;;;;;10.90;10.30;;;-5.00;99.90;;;;;;5015933;28;20187;-65
2022/12/13 04:17:13;;;;;;;13.30;11.33;;;-5.10;99.90;;;;;;5013775;28;20188;-65
2022/12/13 04:19:39;;;;;;;15.80;12.27;;;-5.10;99.90;;;;;;5013806;28;20178;-66
2022/12/13 04:22:04;;;;;;;19.80;9.87;;;-5.10;99.90;;;;;;5013862;28;20712;-66
2022/12/13 04:24:30;;;;;;;12.40;11.30;;;-5.10;99.90;;;;;;5014071;28;20519;-65
2022/12/13 04:26:55;;;;;;;11.47;10.87;;;-5.00;99.90;;;;;;5013745;28;20192;-65
2022/12/13 04:29:22;;;;;;;11.20;10.50;;;-5.00;99.90;;;;;;5013525;28;20540;-65
2022/12/13 04:31:47;;;;;;;12.53;11.77;;;-4.90;99.90;;;;;;5013686;28;20212;-65
2022/12/13 04:34:13;;;;;;;11.07;10.47;;;-4.80;99.90;;;;;;5013638;28;20223;-66
2022/12/13 04:36:39;;;;;;;11.70;10.60;;;-4.70;99.90;;;;;;5013710;28;20764;-66
2022/12/13 04:39:05;;;;;;;14.97;12.83;;;-4.70;99.90;;;;;;5013513;28;20666;-66
2022/12/13 04:41:37;;;;;;;11.73;10.93;;;-4.70;99.90;;;;;;5013214;28;20572;-66
2022/12/13 04:44:05;;;;;;;13.80;13.00;;;-4.60;99.90;;;;;;5013669;28;20187;-66
2022/12/13 04:46:30;;;;;;;12.23;11.40;;;-4.60;99.90;;;;;;5013482;28;20176;-66
2022/12/13 04:48:56;;;;;;;15.43;13.23;;;-4.60;99.90;;;;;;5013638;28;20678;-66
2022/12/13 04:51:21;;;;;;;12.73;11.63;;;-4.60;99.90;;;;;;5012987;28;20183;-65
2022/12/13 04:53:47;;;;;;;12.03;11.07;;;-4.60;99.90;;;;;;5014125;28;20200;-66
2022/12/13 04:56:13;;;;;;;11.43;10.43;;;-4.60;99.90;;;;;;5013252;28;20211;-66
2022/12/13 04:58:38;;;;;;;11.13;10.47;;;-4.60;99.90;;;;;;5013764;28;20176;-66
2022/12/13 05:01:08;;;;;;;11.77;9.70;;;-4.60;99.90;;;;;;5012717;28;20188;-66
2022/12/13 05:03:34;;;;;;;12.37;11.23;;;-4.50;99.90;;;;;;5013213;28;20199;-66
2022/12/13 05:06:04;;;;;;;13.60;12.43;;;-4.50;99.90;;;;;;5013203;28;20172;-66
2022/12/13 05:08:30;;;;;;;13.10;12.07;;;-4.60;99.90;;;;;;4993763;28;20168;-66
2022/12/13 05:10:55;;;;;;;12.27;11.33;;;-4.60;99.90;;;;;;4993275;28;20180;-66
2022/12/13 05:13:21;;;;;;;11.50;10.77;;;-4.60;99.90;;;;;;5011945;28;20204;-66
2022/12/13 05:15:57;;;;;;;13.43;12.60;;;-4.60;99.90;;;;;;5013202;28;20180;-65
2022/12/13 05:18:23;;;;;;;11.73;11.00;;;-4.60;99.90;;;;;;5012821;28;20187;-65
2022/12/13 05:20:49;;;;;;;13.77;12.37;;;-4.60;99.90;;;;;;5013016;28;20200;-66
2022/12/13 05:23:17;;;;;;;12.63;11.50;;;-4.60;99.90;;;;;;5012906;28;20518;-65
2022/12/13 05:25:42;;;;;;;10.80;10.23;;;-4.60;99.90;;;;;;5013166;28;20165;-66
2022/12/13 05:28:08;;;;;;;11.23;10.63;;;-4.60;99.90;;;;;;5013055;28;20642;-65
2022/12/13 05:30:36;;;;;;;13.97;12.70;;;-4.60;99.90;;;;;;5012674;28;20175;-66
2022/12/13 05:33:02;;;;;;;13.00;12.00;;;-4.60;99.90;;;;;;5012595;28;20270;-65
2022/12/13 05:35:27;;;;;;;15.23;13.87;;;-4.60;99.90;;;;;;5013155;28;20658;-65
2022/12/13 05:37:53;;;;;;;15.47;11.23;;;-4.60;99.90;;;;;;5013548;28;20220;-65
2022/12/13 05:40:19;;;;;;;11.83;10.67;;;-4.60;99.90;;;;;;5014476;28;20545;-65
2022/12/13 05:42:44;;;;;;;12.13;10.97;;;-4.60;99.90;;;;;;5014098;28;20234;-65
2022/12/13 05:45:11;;;;;;;11.90;11.20;;;-4.50;99.90;;;;;;5014312;28;20227;-65
2022/12/13 05:47:37;;;;;;;12.10;10.90;;;-4.50;99.90;;;;;;5013848;28;20188;-65
2022/12/13 05:50:03;;;;;;;12.90;11.80;;;-4.40;99.90;;;;;;5012856;28;20177;-65
2022/12/13 05:52:28;;;;;;;13.77;11.10;;;-4.40;99.90;;;;;;5012704;28;20187;-66
2022/12/13 05:54:55;;;;;;;18.60;13.43;;;-4.50;99.90;;;;;;5012799;28;20176;-65
2022/12/13 05:57:21;;;;;;;12.17;11.33;;;-4.50;99.90;;;;;;5012344;28;20179;-65
2022/12/13 05:59:47;;;;;;;18.80;11.20;;;-4.50;99.90;;;;;;5012951;28;20318;-66
2022/12/13 06:02:13;;;;;;;13.00;11.70;;;-4.60;99.90;;;;;;5012064;28;20287;-65
2022/12/13 06:04:38;;;;;;;11.73;11.03;;;-4.60;99.90;;;;;;5014944;28;20375;-65
2022/12/13 06:07:04;;;;;;;13.47;12.37;;;-4.60;99.90;;;;;;5015354;28;20176;-65
2022/12/13 06:09:29;;;;;;;12.00;11.10;;;-4.70;99.90;;;;;;5014940;28;20199;-65
2022/12/13 06:11:55;;;;;;;11.70;11.00;;;-4.70;99.90;;;;;;5015291;28;20179;-65
2022/12/13 06:14:21;;;;;;;12.43;11.57;;;-4.80;99.90;;;;;;5020041;28;20239;-65
2022/12/13 06:16:46;;;;;;;10.93;10.23;;;-4.80;99.90;;;;;;5037439;28;20199;-65
2022/12/13 06:19:12;;;;;;;13.37;12.50;;;-4.90;99.90;;;;;;5039592;28;20545;-65
2022/12/13 06:21:37;;;;;;;14.80;13.50;;;-4.90;99.90;;;;;;5031048;28;20208;-66
2022/12/13 06:24:04;;;;;;;12.13;11.10;;;-5.00;99.90;;;;;;5020657;28;20572;-65
2022/12/13 06:26:30;;;;;;;12.10;11.37;;;-5.00;99.90;;;;;;5019447;28;20203;-65
2022/12/13 06:28:55;;;;;;;13.30;12.07;;;-5.10;99.90;;;;;;5020209;28;20221;-65
2022/12/13 06:31:21;;;;;;;12.83;11.73;;;-5.00;99.90;;;;;;5018214;28;20187;-65
2022/12/13 06:33:46;;;;;;;11.40;10.70;;;-5.00;99.90;;;;;;5018555;28;20203;-65
2022/12/13 06:36:12;;;;;;;10.53;9.93;;;-5.10;99.90;;;;;;5018889;28;20172;-66
2022/12/13 06:38:38;;;;;;;11.50;10.70;;;-5.10;99.90;;;;;;5017281;28;20172;-65
2022/12/13 06:41:12;;;;;;;12.07;11.27;;;-5.10;99.90;;;;;;5015855;28;20255;-65
2022/12/13 06:43:40;;;;;;;11.73;10.73;;;-5.10;99.90;;;;;;5017231;28;20289;-65
2022/12/13 06:46:05;;;;;;;26.73;12.10;;;-5.10;99.90;;;;;;5017269;28;20168;-65
2022/12/13 06:48:31;;;;;;;11.47;10.67;;;-5.10;99.90;;;;;;5016707;28;20172;-65
2022/12/13 06:51:04;;;;;;;10.67;9.63;;;-5.10;99.90;;;;;;5014367;28;20191;-66
2022/12/13 06:53:30;;;;;;;12.73;11.50;;;-5.10;99.90;;;;;;5030877;28;20489;-65
2022/12/13 06:55:56;;;;;;;11.43;10.63;;;-5.10;99.90;;;;;;5031284;28;20180;-65
2022/12/13 06:58:22;;;;;;;12.57;11.40;;;-5.10;99.90;;;;;;5015724;28;20259;-65
2022/12/13 07:00:48;;;;;;;11.77;10.87;;;-5.10;99.90;;;;;;5015602;28;20351;-65
2022/12/13 07:03:14;;;;;;;17.93;10.73;;;-5.10;99.90;;;;;;5019695;28;20192;-65
2022/12/13 07:05:40;;;;;;;13.60;11.50;;;-5.20;99.90;;;;;;5019849;28;20179;-65
2022/12/13 07:08:06;;;;;;;11.47;10.50;;;-5.10;99.90;;;;;;5019461;28;20179;-66
2022/12/13 07:10:31;;;;;;;10.17;9.57;;;-5.10;99.90;;;;;;5017511;28;20661;-65
2022/12/13 07:12:57;;;;;;;11.37;10.27;;;-5.10;99.90;;;;;;5019775;28;20607;-65
2022/12/13 07:15:23;;;;;;;11.13;10.33;;;-5.10;99.90;;;;;;5018973;28;20210;-66
2022/12/13 07:17:49;;;;;;;10.40;9.63;;;-5.00;99.90;;;;;;5019123;28;20188;-66
2022/12/13 07:20:15;;;;;;;10.47;9.87;;;-5.00;99.90;;;;;;5018017;28;20232;-66
2022/12/13 07:22:41;;;;;;;12.87;11.87;;;-5.00;99.90;;;;;;5016809;28;20282;-66
2022/12/13 07:25:08;;;;;;;12.70;11.70;;;-5.00;99.90;;;;;;5037064;28;20549;-66
2022/12/13 07:27:34;;;;;;;14.93;13.63;;;-5.00;99.90;;;;;;5032515;28;20211;-65
2022/12/13 07:30:00;;;;;;;19.27;12.13;;;-4.90;99.90;;;;;;5017578;28;20237;-65
2022/12/13 07:32:25;;;;;;;13.60;12.87;;;-4.80;99.90;;;;;;5016942;28;20187;-65
2022/12/13 07:34:51;;;;;;;13.67;12.67;;;-4.80;99.90;;;;;;5015407;28;20183;-66
2022/12/13 07:37:17;;;;;;;15.00;13.97;;;-4.70;99.90;;;;;;5019515;28;20180;-65
2022/12/13 07:39:43;;;;;;;14.33;13.23;;;-4.70;99.90;;;;;;5019430;28;20190;-66
2022/12/13 07:42:08;;;;;;;13.00;12.20;;;-4.70;99.90;;;;;;5017711;28;20220;-67
2022/12/13 07:44:34;;;;;;;14.47;13.47;;;-4.60;99.90;;;;;;5016871;28;20214;-65
2022/12/13 07:46:59;;;;;;;13.57;12.80;;;-4.50;99.90;;;;;;5019553;28;20239;-66
2022/12/13 07:49:25;;;;;;;13.37;12.23;;;-4.50;99.90;;;;;;5018416;28;20176;-66
2022/12/13 07:51:51;;;;;;;14.20;13.33;;;-4.50;99.90;;;;;;5020004;28;20180;-66
2022/12/13 07:54:16;;;;;;;13.50;12.63;;;-4.40;99.90;;;;;;5017126;28;20208;-66
2022/12/13 07:56:42;;;;;;;15.50;14.00;;;-4.40;99.90;;;;;;5020060;28;20184;-66
2022/12/13 07:59:09;;;;;;;12.40;11.73;;;-4.40;99.90;;;;;;5019747;28;20665;-66
2022/12/13 08:01:35;;;;;;;11.33;10.63;;;-4.40;99.90;;;;;;5019369;28;20678;-66
2022/12/13 08:04:04;;;;;;;12.27;11.47;;;-4.40;99.90;;;;;;5019745;28;20188;-66
2022/12/13 08:06:34;;;;;;;11.87;11.23;;;-4.40;99.90;;;;;;5020092;28;20172;-66
2022/12/13 08:09:00;;;;;;;12.77;11.83;;;-4.40;99.90;;;;;;5001627;28;20192;-66
2022/12/13 08:11:25;;;;;;;10.70;10.20;;;-4.30;99.90;;;;;;5002309;28;20187;-66
2022/12/13 08:13:53;;;;;;;12.23;11.23;;;-4.30;99.90;;;;;;5037357;28;20250;-66
2022/12/13 08:16:19;;;;;;;15.17;11.80;;;-4.30;99.90;;;;;;5041815;28;20183;-66
2022/12/13 08:18:46;;;;;;;13.83;12.50;;;-4.30;99.90;;;;;;5024085;28;20500;-66
2022/12/13 08:21:12;;;;;;;14.13;11.90;;;-4.30;99.90;;;;;;5020620;28;20283;-66
2022/12/13 08:23:38;;;;;;;12.57;11.40;;;-4.70;99.90;;;;;;5020424;28;20215;-67
2022/12/13 08:26:05;;;;;;;10.73;9.97;;;-4.20;99.90;;;;;;5014883;28;20172;-66
2022/12/13 08:28:31;;;;;;;12.30;11.30;;;-4.20;99.90;;;;;;5014973;28;20169;-66
2022/12/13 08:31:13;;;;;;;11.17;10.13;;;-4.20;99.90;;;;;;5013678;28;20187;-66
2022/12/13 08:33:39;;;;;;;11.60;10.57;;;-4.10;99.90;;;;;;5013587;28;20196;-65
2022/12/13 08:36:14;;;;;;;8.83;8.23;;;-4.10;99.90;;;;;;5013820;28;20652;-66
2022/12/13 08:38:40;;;;;;;9.47;8.97;;;-4.00;99.90;;;;;;5013508;28;20183;-66
2022/12/13 08:41:06;;;;;;;9.50;8.83;;;-4.00;99.90;;;;;;5012405;28;20205;-66
2022/12/13 08:43:31;;;;;;;11.03;9.77;;;-3.90;99.90;;;;;;5013328;28;20263;-66
2022/12/13 08:45:57;;;;;;;11.73;10.40;;;-3.90;99.90;;;;;;5012323;28;20178;-66
2022/12/13 08:48:23;;;;;;;9.83;9.10;;;-3.80;99.90;;;;;;5012861;28;20180;-66
2022/12/13 08:50:49;;;;;;;12.30;9.77;;;-3.80;99.90;;;;;;5013280;28;20737;-67
2022/12/13 08:53:14;;;;;;;9.13;8.53;;;-3.70;99.90;;;;;;5017407;28;20206;-67
2022/12/13 08:55:40;;;;;;;17.20;10.73;;;-3.60;99.90;;;;;;5033280;28;20175;-65
2022/12/13 08:58:07;;;;;;;11.50;9.00;;;-3.30;99.90;;;;;;5024877;28;20184;-66
2022/12/13 09:00:34;;;;;;;11.17;10.37;;;-2.90;99.90;;;;;;5013073;28;20169;-66
2022/12/13 09:03:00;;;;;;;11.87;9.73;;;-2.70;99.90;;;;;;5012884;28;20195;-66
2022/12/13 09:05:26;;;;;;;10.43;9.57;;;-2.60;99.90;;;;;;5012680;28;20234;-66
2022/12/13 09:07:56;;;;;;;16.83;10.97;;;-2.40;99.90;;;;;;5013005;28;20184;-66
2022/12/13 09:10:22;;;;;;;12.13;10.97;;;-2.20;99.90;;;;;;5013042;28;20183;-66
2022/12/13 09:12:47;;;;;;;12.53;10.97;;;-1.90;99.90;;;;;;5012946;28;20539;-67
2022/12/13 09:15:13;;;;;;;10.60;9.63;;;-1.60;99.90;;;;;;5012916;28;20292;-67
2022/12/13 09:17:39;;;;;;;10.17;9.17;;;-1.40;99.90;;;;;;5012859;28;20259;-67
2022/12/13 09:20:10;;;;;;;12.43;11.30;;;-1.30;99.90;;;;;;5012697;28;20638;-67
2022/12/13 09:22:36;;;;;;;10.07;9.13;;;-1.30;99.90;;;;;;5012700;28;20283;-66
2022/12/13 09:25:03;;;;;;;11.97;10.10;;;-1.20;99.90;;;;;;5012769;28;20683;-66
2022/12/13 09:27:30;;;;;;;13.57;9.63;;;-1.10;99.90;;;;;;5027948;28;20260;-67
2022/12/13 09:29:56;;;;;;;10.27;9.50;;;-1.10;99.90;;;;;;5012314;28;20204;-67
2022/12/13 09:32:22;;;;;;;11.43;10.40;;;-1.20;99.90;;;;;;5012623;28;20172;-67
2022/12/13 09:34:48;;;;;;;11.80;10.60;;;-1.20;99.90;;;;;;5012431;28;20544;-67
2022/12/13 09:37:13;;;;;;;11.20;10.07;;;-1.00;99.90;;;;;;5012663;28;20172;-67
2022/12/13 09:39:39;;;;;;;9.63;8.70;;;-0.70;99.90;;;;;;5012221;28;20180;-67
2022/12/13 09:42:13;;;;;;;12.20;10.47;;;-0.70;99.90;;;;;;5012497;28;20207;-66
2022/12/13 09:44:48;;;;;;;13.87;11.50;;;-0.70;99.90;;;;;;5012494;28;20196;-68
2022/12/13 09:47:21;;;;;;;16.47;10.77;;;-0.40;99.90;;;;;;5012629;28;20194;-67
2022/12/13 09:49:47;;;;;;;14.83;9.43;;;-0.50;99.90;;;;;;5012952;28;20195;-67
2022/12/13 09:52:17;;;;;;;13.07;10.27;;;-0.30;99.90;;;;;;5014939;28;20191;-67
2022/12/13 09:54:43;;;;;;;13.70;11.77;;;-0.10;99.90;;;;;;5013077;28;20196;-68
2022/12/13 09:57:16;;;;;;;12.10;11.00;;;0.10;99.90;;;;;;5012118;28;20184;-68
2022/12/13 09:59:42;;;;;;;13.10;9.57;;;0.30;99.90;;;;;;5011013;28;20263;-68
2022/12/13 10:02:27;;;;;;;13.43;9.83;;;0.30;99.90;;;;;;5012169;28;20392;-68
2022/12/13 10:04:56;;;;;;;14.60;13.33;;;0.30;99.90;;;;;;5012038;28;20184;-68
2022/12/13 10:07:23;;;;;;;13.23;10.33;;;0.20;99.90;;;;;;5011933;28;20263;-68
2022/12/13 10:09:58;;;;;;;13.73;10.10;;;0.30;99.90;;;;;;5011637;28;20222;-67
2022/12/13 10:12:24;;;;;;;12.30;11.27;;;0.50;99.90;;;;;;5012111;28;20175;-68
2022/12/13 10:14:54;;;;;;;12.83;11.47;;;0.60;99.90;;;;;;5011643;28;20673;-67
2022/12/13 10:17:24;;;;;;;12.77;11.43;;;0.70;99.90;;;;;;5011745;28;20195;-67
2022/12/13 10:19:50;;;;;;;17.40;11.67;;;0.70;84.80;;;;;;5012216;28;20206;-68
2022/12/13 10:22:21;;;;;;;14.80;9.63;;;0.90;85.20;;;;;;5011725;28;20294;-68
2022/12/13 10:25:07;;;;;;;18.37;11.27;;;1.00;91.60;;;;;;5011942;28;20191;-68
2022/12/13 10:27:41;;;;;;;14.53;11.33;;;0.90;45.50;;;;;;5011847;28;20168;-67
2022/12/13 10:30:21;;;;;;;15.57;12.53;;;1.10;99.90;;;;;;5011338;28;20735;-67
2022/12/13 10:32:58;;;;;;;13.03;11.43;;;1.20;86.20;;;;;;5010247;28;20333;-68
2022/12/13 10:35:28;;;;;;;18.03;11.03;;;1.30;56.30;;;;;;5011699;28;20307;-68
2022/12/13 10:37:55;;;;;;;12.87;10.80;;;1.50;95.70;;;;;;5011553;28;20541;-68
2022/12/13 10:40:47;;;;;;;16.40;12.73;;;1.60;54.00;;;;;;5011336;28;20168;-68
2022/12/13 10:43:20;;;;;;;13.40;10.03;;;1.80;67.40;;;;;;5011243;28;20207;-68
2022/12/13 10:46:03;;;;;;;18.07;11.10;;;1.80;47.50;;;;;;5011790;28;20539;-68
2022/12/13 10:48:40;;;;;;;14.03;10.23;;;1.80;16.80;;;;;;5011667;28;20180;-68
2022/12/13 10:51:09;;;;;;;14.00;11.33;;;1.80;19.70;;;;;;5011304;28;20187;-67
2022/12/13 10:53:50;;;;;;;12.33;10.30;;;1.90;20.90;;;;;;5008487;28;20563;-68
2022/12/13 10:56:17;;;;;;;11.27;9.90;;;2.00;1.00;;;;;;5011589;28;20194;-68
2022/12/13 10:58:46;;;;;;;20.27;13.00;;;2.00;1.00;;;;;;5011345;28;20578;-68
2022/12/13 11:01:18;;;;;;;21.00;11.67;;;2.10;1.00;;;;;;5010973;28;20203;-68
2022/12/13 11:04:18;;;;;;;12.20;11.10;;;2.20;1.00;;;;;;5011308;28;20254;-68
2022/12/13 11:06:46;;;;;;;9.00;8.27;;;2.30;1.00;;;;;;5011126;28;20187;-68
2022/12/13 11:09:32;;;;;;;11.53;10.47;;;2.30;1.00;;;;;;5012077;28;20194;-68
2022/12/13 11:12:03;;;;;;;13.53;11.73;;;2.20;1.00;;;;;;5027552;28;20263;-67
2022/12/13 11:14:35;;;;;;;13.10;10.67;;;2.20;1.00;;;;;;5015678;28;20708;-67
2022/12/13 11:17:07;;;;;;;12.90;10.07;;;2.30;1.00;;;;;;5015932;28;20248;-68
2022/12/13 11:19:42;;;;;;;15.87;10.00;;;2.40;1.00;;;;;;5013974;28;20556;-68
2022/12/13 11:22:17;;;;;;;22.07;12.07;;;2.50;1.00;;;;;;5014858;28;20199;-67
2022/12/13 11:24:50;;;;;;;12.63;11.13;;;2.50;1.00;;;;;;5015029;28;20282;-68
2022/12/13 11:27:35;;;;;;;13.17;11.13;;;2.60;1.00;;;;;;5013928;28;20179;-67
2022/12/13 11:30:13;;;;;;;13.00;10.23;;;2.70;1.00;;;;;;5015351;28;20168;-66
2022/12/13 11:32:53;;;;;;;13.03;11.37;;;2.90;1.00;;;;;;5014894;28;20183;-68
2022/12/13 11:35:36;;;;;;;13.23;10.13;;;3.00;1.00;;;;;;5015185;28;20188;-68
2022/12/13 11:38:12;;;;;;;12.80;11.00;;;3.00;99.90;;;;;;5014998;28;20280;-67
2022/12/13 11:40:44;;;;;;;12.20;11.10;;;2.90;99.90;;;;;;5013570;28;20218;-66
2022/12/13 11:43:55;;;;;;;11.40;10.33;;;3.00;1.00;;;;;;5013439;28;20243;-68
2022/12/13 11:46:46;;;;;;;13.67;12.57;;;3.10;1.00;;;;;;4973522;28;20189;-68
2022/12/13 11:49:17;;;;;;;10.13;9.13;;;3.10;99.90;;;;;;4972626;28;20225;-67
2022/12/13 11:51:56;;;;;;;10.20;9.20;;;2.80;1.00;;;;;;4989883;28;20189;-67
2022/12/13 11:54:42;;;;;;;12.97;9.57;;;2.60;1.00;;;;;;5014709;28;20268;-67
2022/12/13 11:57:24;;;;;;;11.87;10.00;;;2.60;99.90;;;;;;5015916;28;20219;-67
2022/12/13 11:59:58;;;;;;;10.40;9.50;;;2.70;99.90;;;;;;5016788;28;20172;-67
2022/12/13 12:02:33;;;;;;;10.90;9.07;;;2.80;99.90;;;;;;5015698;28;20199;-66
2022/12/13 12:05:04;;;;;;;10.97;9.50;;;3.00;1.00;;;;;;5014755;28;20176;-67
2022/12/13 12:07:38;;;;;;;13.57;9.50;;;3.20;99.90;;;;;;5012841;28;20196;-67
2022/12/13 12:10:17;;;;;;;16.93;10.60;;;3.10;99.90;;;;;;5022177;28;20202;-67
2022/12/13 12:12:50;;;;;;;11.00;9.90;;;3.00;99.90;;;;;;5026973;28;20618;-67
2022/12/13 12:15:34;;;;;;;12.47;11.20;;;2.90;1.00;;;;;;5014630;28;20180;-67
2022/12/13 12:18:00;;;;;;;10.37;9.13;;;2.70;1.00;;;;;;5013740;28;20542;-67
2022/12/13 12:20:46;;;;;;;7.80;7.10;;;2.70;1.00;;;;;;5008204;28;20185;-67
2022/12/13 12:23:36;;;;;;;10.70;8.33;;;2.60;15.90;;;;;;5028094;28;20218;-68
2022/12/13 12:26:08;;;;;;;13.77;9.27;;;2.40;1.00;;;;;;5025932;28;20184;-68
2022/12/13 12:28:46;;;;;;;10.33;9.47;;;2.30;99.90;;;;;;5014499;28;20280;-69
2022/12/13 12:31:21;;;;;;;10.40;9.60;;;2.10;1.00;;;;;;5013717;28;20180;-66
2022/12/13 12:34:12;;;;;;;14.00;9.97;;;1.90;99.90;;;;;;5014296;28;20281;-67
2022/12/13 12:36:43;;;;;;;12.90;9.77;;;1.90;99.90;;;;;;5013994;28;20176;-67
2022/12/13 12:39:41;;;;;;;10.67;9.77;;;1.90;1.00;;;;;;5013994;28;20180;-67
2022/12/13 12:42:46;;;;;;;9.17;8.20;;;1.80;99.90;;;;;;5014651;28;20203;-67
2022/12/13 12:45:14;;;;;;;10.20;8.70;;;1.60;73.90;;;;;;5013802;28;20168;-67
2022/12/13 12:47:43;;;;;;;9.77;8.93;;;1.30;99.90;;;;;;5014167;28;20544;-67
2022/12/13 12:50:29;;;;;;;10.00;9.07;;;1.20;10.50;;;;;;5013689;28;20661;-67
2022/12/13 12:53:19;;;;;;;9.43;8.63;;;1.20;99.90;;;;;;5014027;28;20267;-67
2022/12/13 12:56:06;;;;;;;11.67;9.63;;;1.30;99.90;;;;;;5013807;28;20642;-67